createdAt,value
2022-09-27T00:01:45.050Z,94153.81
2022-09-27T00:06:49.026Z,94149.31
2022-09-27T00:11:51.753Z,94143.09
2022-09-27T00:16:54.601Z,94133.41
2022-09-27T00:21:57.556Z,94127.38
2022-09-27T00:27:00.581Z,94139.81
2022-09-27T00:32:03.583Z,94149.22
2022-09-27T00:37:11.618Z,94145.91
2022-09-27T00:42:14.354Z,94144.56
2022-09-27T00:47:18.222Z,94135.66
2022-09-27T00:52:21.139Z,94128.72
2022-09-27T00:57:23.835Z,94138.88
2022-09-27T01:02:27.041Z,94135.25
2022-09-27T01:07:29.853Z,94135.56
2022-09-27T01:12:32.695Z,94129.78
2022-09-27T01:17:35.428Z,94124.22
2022-09-27T01:22:38.174Z,94114.09
2022-09-27T01:27:40.907Z,94113.47
2022-09-27T01:32:43.840Z,94106.66
2022-09-27T01:37:46.673Z,94094.94
2022-09-27T01:42:50.181Z,94097.47
2022-09-27T01:47:53.045Z,94095.91
2022-09-27T01:52:55.978Z,94098.50
2022-09-27T01:57:59.073Z,94093.91
2022-09-27T02:03:01.987Z,94086.97
2022-09-27T02:08:04.933Z,94081.47
2022-09-27T02:13:07.795Z,94080.94
2022-09-27T02:18:10.638Z,94078.28
2022-09-27T02:23:13.492Z,94077.31
2022-09-27T02:28:16.316Z,94086.63
2022-09-27T02:33:19.116Z,94088.50
2022-09-27T02:38:21.877Z,94086.03
2022-09-27T02:43:24.726Z,94061.91
2022-09-27T02:48:27.993Z,94064.75
2022-09-27T02:53:30.981Z,94063.16
2022-09-27T02:58:33.786Z,94046.09
2022-09-27T03:03:36.549Z,94046.72
2022-09-27T03:08:39.242Z,94036.13
2022-09-27T03:14:06.824Z,94031.56
2022-09-27T03:19:07.790Z,94033.63
2022-09-27T03:24:13.597Z,94031.88
2022-09-27T03:29:19.566Z,94022.41
2022-09-27T03:34:26.448Z,94011.41
2022-09-27T03:39:29.161Z,94013.16
2022-09-27T03:44:32.887Z,93999.94
2022-09-27T03:49:35.612Z,94003.41
2022-09-27T03:54:38.377Z,94000.72
2022-09-27T03:59:41.110Z,93998.38
2022-09-27T04:04:45.237Z,93998.38
2022-09-27T04:09:47.990Z,94002.00
2022-09-27T04:14:50.714Z,93992.69
2022-09-27T04:19:53.606Z,93993.81
2022-09-27T04:24:56.363Z,93989.25
2022-09-27T04:29:59.425Z,93997.16
2022-09-27T04:35:20.074Z,93998.59
2022-09-27T04:40:23.854Z,94010.53
2022-09-27T04:45:26.672Z,93998.25
2022-09-27T04:50:32.177Z,93995.94
2022-09-27T04:55:38.796Z,94004.72
2022-09-27T05:00:42.880Z,94019.69
2022-09-27T05:05:45.610Z,94027.63
2022-09-27T05:10:48.396Z,94020.38
2022-09-27T05:15:52.695Z,94020.03
2022-09-27T05:20:56.988Z,94025.75
2022-09-27T05:26:00.021Z,94032.41
2022-09-27T05:31:03.043Z,94034.47
2022-09-27T05:36:05.857Z,94034.78
2022-09-27T05:41:09.141Z,94039.72
2022-09-27T05:46:11.989Z,94040.03
2022-09-27T05:51:15.476Z,94046.78
2022-09-27T05:56:18.338Z,94052.00
2022-09-27T06:01:21.112Z,94049.22
2022-09-27T06:06:23.871Z,94061.03
2022-09-27T06:11:27.714Z,94060.53
2022-09-27T06:16:30.674Z,94060.38
2022-09-27T06:21:33.428Z,94068.53
2022-09-27T06:26:37.284Z,94084.31
2022-09-27T06:31:40.032Z,94095.63
2022-09-27T06:36:43.709Z,94101.81
2022-09-27T06:41:48.351Z,94100.31
2022-09-27T06:46:51.081Z,94108.91
2022-09-27T06:51:54.777Z,94109.28
2022-09-27T06:57:02.226Z,94111.34
2022-09-27T07:02:05.332Z,94111.38
2022-09-27T07:07:08.076Z,94129.78
2022-09-27T07:12:13.666Z,94138.03
2022-09-27T07:17:16.550Z,94133.28
2022-09-27T07:22:19.507Z,94126.72
2022-09-27T07:27:22.361Z,94129.94
2022-09-27T07:32:25.222Z,94124.44
2022-09-27T07:37:28.122Z,94125.94
2022-09-27T07:42:31.352Z,94134.56
2022-09-27T07:47:34.145Z,94117.81
2022-09-27T07:52:36.958Z,94127.31
2022-09-27T07:57:39.689Z,94137.59
2022-09-27T08:02:42.850Z,94131.34
2022-09-27T08:07:45.561Z,94132.63
2022-09-27T08:12:48.255Z,94199.25
2022-09-27T08:17:51.529Z,94215.16
2022-09-27T08:22:54.244Z,94224.03
2022-09-27T08:27:57.725Z,94238.06
2022-09-27T08:33:00.621Z,94227.41
2022-09-27T08:38:03.424Z,94236.72
2022-09-27T08:43:06.209Z,94244.97
2022-09-27T08:48:09.015Z,94235.94
2022-09-27T08:53:11.808Z,94228.72
2022-09-27T08:58:14.659Z,94224.22
2022-09-27T09:03:19.216Z,94228.91
2022-09-27T09:08:22.049Z,94232.44
2022-09-27T09:13:25.865Z,94233.56
2022-09-27T09:18:28.665Z,94235.50
2022-09-27T09:23:31.484Z,94231.28
2022-09-27T09:28:34.425Z,94230.50
2022-09-27T09:33:37.113Z,94223.94
2022-09-27T09:38:39.834Z,94224.59
2022-09-27T09:43:42.772Z,94232.69
2022-09-27T09:48:46.706Z,94237.22
2022-09-27T09:53:49.548Z,94236.56
2022-09-27T09:58:52.447Z,94242.69
2022-09-27T10:03:55.156Z,94232.16
2022-09-27T10:08:57.993Z,94241.00
2022-09-27T10:14:00.886Z,94246.84
2022-09-27T10:19:03.750Z,94243.38
2022-09-27T10:24:06.633Z,94263.88
2022-09-27T10:29:09.464Z,94247.94
2022-09-27T10:34:12.728Z,94261.53
2022-09-27T10:39:15.582Z,94264.84
2022-09-27T10:44:18.654Z,94264.00
2022-09-27T10:49:21.466Z,94291.53
2022-09-27T10:54:24.332Z,94283.59
2022-09-27T10:59:27.175Z,94272.81
2022-09-27T11:04:29.961Z,94275.66
2022-09-27T11:09:32.905Z,94275.16
2022-09-27T11:14:35.613Z,94267.38
2022-09-27T11:19:38.382Z,94245.84
2022-09-27T11:24:41.435Z,94261.25
2022-09-27T11:29:44.698Z,94268.78
2022-09-27T11:34:48.013Z,94263.25
2022-09-27T11:39:51.347Z,94260.22
2022-09-27T11:45:13.434Z,94267.78
2022-09-27T11:50:18.563Z,94277.88
2022-09-27T11:55:21.620Z,94267.28
2022-09-27T12:00:24.925Z,94253.44
2022-09-27T12:05:27.826Z,94260.66
2022-09-27T12:10:31.047Z,94268.03
2022-09-27T12:15:34.077Z,94282.41
2022-09-27T12:20:37.433Z,94296.75
2022-09-27T12:25:41.361Z,94296.16
2022-09-27T12:30:44.652Z,94302.94
2022-09-27T12:35:47.963Z,94288.16
2022-09-27T12:40:51.119Z,94270.69
2022-09-27T12:45:54.549Z,94264.19
2022-09-27T12:50:57.715Z,94261.13
2022-09-27T12:56:00.889Z,94249.94
2022-09-27T13:01:04.108Z,94249.25
2022-09-27T13:06:07.266Z,94243.75
2022-09-27T13:11:10.642Z,94241.00
2022-09-27T13:16:14.053Z,94245.72
2022-09-27T13:21:17.272Z,94244.91
2022-09-27T13:26:20.492Z,94229.22
2022-09-27T13:31:24.808Z,94235.16
2022-09-27T13:36:29.801Z,94230.66
2022-09-27T13:41:33.112Z,94229.88
2022-09-27T13:46:36.462Z,94224.88
2022-09-27T13:51:39.770Z,94229.06
2022-09-27T13:56:46.798Z,94227.28
2022-09-27T14:01:50.300Z,94222.81
2022-09-27T14:06:53.608Z,94227.41
2022-09-27T14:11:56.798Z,94221.91
2022-09-27T14:17:00.035Z,94227.69
2022-09-27T14:22:03.187Z,94244.41
2022-09-27T14:27:06.513Z,94244.00
2022-09-27T14:32:10.049Z,94261.16
2022-09-27T14:37:26.115Z,94259.06
2022-09-27T14:42:32.475Z,94250.22
2022-09-27T14:47:35.860Z,94267.38
2022-09-27T14:52:39.141Z,94256.09
2022-09-27T14:57:44.269Z,94256.06
2022-09-27T15:02:47.654Z,94256.47
2022-09-27T15:07:51.707Z,94260.84
2022-09-27T15:12:57.991Z,94255.50
2022-09-27T15:18:01.401Z,94248.75
2022-09-27T15:23:04.771Z,94250.56
2022-09-27T15:28:08.766Z,94250.56
2022-09-27T15:33:12.144Z,94247.66
2022-09-27T15:38:17.091Z,94229.19
2022-09-27T15:43:21.015Z,94244.34
2022-09-27T15:48:24.218Z,94235.19
2022-09-27T15:53:27.535Z,94221.47
2022-09-27T15:58:31.573Z,94248.00
2022-09-27T16:03:34.863Z,94274.44
2022-09-27T16:08:38.062Z,94306.03
2022-09-27T16:13:41.279Z,94305.06
2022-09-27T16:18:44.491Z,94319.94
2022-09-27T16:23:47.687Z,94311.06
2022-09-27T16:28:50.818Z,94308.84
2022-09-27T16:33:54.367Z,94305.84
2022-09-27T16:38:57.804Z,94309.66
2022-09-27T16:44:00.955Z,94296.41
2022-09-27T16:49:04.648Z,94298.38
2022-09-27T16:54:07.964Z,94287.50
2022-09-27T16:59:11.375Z,94280.50
2022-09-27T17:04:15.216Z,94301.81
2022-09-27T17:09:18.397Z,94324.13
2022-09-27T17:14:22.580Z,94327.16
2022-09-27T17:19:26.081Z,94325.19
2022-09-27T17:24:29.346Z,94333.34
2022-09-27T17:29:32.705Z,94339.25
2022-09-27T17:34:35.990Z,94330.66
2022-09-27T17:39:39.914Z,94333.81
2022-09-27T17:44:48.436Z,94337.59
2022-09-27T17:50:09.280Z,94335.00
2022-09-27T17:55:12.563Z,94344.66
2022-09-27T18:00:15.889Z,94344.97
2022-09-27T18:05:21.358Z,94350.03
2022-09-27T18:10:31.930Z,94348.06
2022-09-27T18:15:39.144Z,94363.94
2022-09-27T18:20:42.408Z,94359.94
2022-09-27T18:25:45.608Z,94347.59
2022-09-27T18:30:48.778Z,94356.41
2022-09-27T18:35:52.022Z,94362.97
2022-09-27T18:40:57.794Z,94370.56
2022-09-27T18:46:17.879Z,94378.59
2022-09-27T18:51:26.475Z,94385.47
2022-09-27T18:56:29.664Z,94389.47
2022-09-27T19:01:35.746Z,94386.97
2022-09-27T19:06:39.219Z,94389.28
2022-09-27T19:11:42.481Z,94389.66
2022-09-27T19:16:47.414Z,94384.53
2022-09-27T19:21:51.210Z,94378.41
2022-09-27T19:26:56.797Z,94389.16
2022-09-27T19:31:59.974Z,94390.75
2022-09-27T19:37:03.827Z,94391.31
2022-09-27T19:42:08.160Z,94390.94
2022-09-27T19:47:11.425Z,94378.59
2022-09-27T19:52:14.868Z,94379.09
2022-09-27T19:57:18.100Z,94369.69
2022-09-27T20:02:21.424Z,94385.94
2022-09-27T20:07:24.738Z,94388.56
2022-09-27T20:12:30.985Z,94383.03
2022-09-27T20:17:34.226Z,94383.88
2022-09-27T20:22:37.391Z,94380.41
2022-09-27T20:27:40.746Z,94371.00
2022-09-27T20:33:04.083Z,94371.53
2022-09-27T20:38:07.352Z,94353.59
2022-09-27T20:43:10.913Z,94354.31
2022-09-27T20:48:14.807Z,94349.22
2022-09-27T20:53:18.039Z,94348.44
2022-09-27T20:58:21.351Z,94346.38
2022-09-27T21:03:24.629Z,94349.03
2022-09-27T21:08:27.897Z,94341.50
2022-09-27T21:13:31.264Z,94340.13
2022-09-27T21:18:34.780Z,94341.50
2022-09-27T21:23:43.523Z,94342.53
2022-09-27T21:28:47.983Z,94332.47
2022-09-27T21:33:53.632Z,94324.44
2022-09-27T21:38:56.916Z,94338.81
2022-09-27T21:44:00.112Z,94345.47
2022-09-27T21:49:03.292Z,94354.88
2022-09-27T21:54:06.457Z,94331.91
2022-09-27T21:59:10.131Z,94367.25
2022-09-27T22:04:14.639Z,94378.22
2022-09-27T22:09:18.082Z,94394.41
2022-09-27T22:14:21.356Z,94376.63
2022-09-27T22:19:24.639Z,94374.78
2022-09-27T22:24:28.457Z,94370.25
2022-09-27T22:29:31.732Z,94374.78
2022-09-27T22:34:35.382Z,94365.94
2022-09-27T22:39:39.003Z,94354.63
2022-09-27T22:44:52.206Z,94350.31
2022-09-27T22:49:59.889Z,94346.22
2022-09-27T22:55:03.273Z,94331.97
2022-09-27T23:00:07.801Z,94329.91
2022-09-27T23:05:11.525Z,94335.78
2022-09-27T23:10:14.993Z,94337.16
2022-09-27T23:15:19.068Z,94328.00
2022-09-27T23:20:22.985Z,94325.75
2022-09-27T23:25:26.202Z,94326.25
2022-09-27T23:30:31.771Z,94319.81
2022-09-27T23:35:35.052Z,94303.16
2022-09-27T23:40:39.885Z,94294.72
2022-09-27T23:45:43.657Z,94291.72
2022-09-27T23:50:46.968Z,94291.13
2022-09-27T23:55:50.487Z,94283.66
